createdAt,value
2023-05-19T00:01:33.258Z,12.72
2023-05-19T00:04:05.571Z,12.71
2023-05-19T00:06:37.261Z,12.61
2023-05-19T00:09:10.072Z,12.58
2023-05-19T00:11:44.396Z,12.58
2023-05-19T00:14:15.906Z,12.54
2023-05-19T00:16:47.774Z,12.53
2023-05-19T00:19:19.090Z,12.49
2023-05-19T00:21:49.582Z,12.48
2023-05-19T00:24:20.150Z,12.45
2023-05-19T00:26:53.378Z,12.43
2023-05-19T00:29:23.830Z,12.41
2023-05-19T00:31:54.404Z,12.36
2023-05-19T00:34:24.948Z,12.38
2023-05-19T00:36:55.519Z,12.38
2023-05-19T00:39:26.130Z,12.38
2023-05-19T00:41:59.239Z,12.32
2023-05-19T00:44:30.049Z,12.30
2023-05-19T00:47:01.247Z,12.24
2023-05-19T00:49:31.865Z,12.23
2023-05-19T00:52:04.650Z,12.20
2023-05-19T00:54:36.747Z,12.12
2023-05-19T00:57:10.020Z,12.09
2023-05-19T00:59:40.475Z,12.04
2023-05-19T01:02:11.079Z,12.01
2023-05-19T01:04:44.035Z,11.98
2023-05-19T01:07:15.542Z,11.98
2023-05-19T01:09:46.195Z,11.96
2023-05-19T01:12:19.461Z,11.94
2023-05-19T01:14:50.144Z,11.92
2023-05-19T01:17:29.973Z,11.93
2023-05-19T01:20:08.397Z,11.93
2023-05-19T01:23:24.127Z,11.95
2023-05-19T01:26:40.259Z,11.90
2023-05-19T01:29:40.585Z,11.85
2023-05-19T01:32:15.057Z,11.83
2023-05-19T01:34:47.810Z,11.82
2023-05-19T01:37:19.463Z,11.82
2023-05-19T01:39:50.902Z,11.79
2023-05-19T01:42:22.554Z,11.71
2023-05-19T01:44:53.778Z,11.67
2023-05-19T01:47:27.866Z,11.64
2023-05-19T01:49:58.456Z,11.61
2023-05-19T01:52:30.350Z,11.57
2023-05-19T01:55:00.993Z,11.58
2023-05-19T01:57:43.432Z,11.57
2023-05-19T02:00:21.967Z,11.57
2023-05-19T02:03:07.523Z,11.56
2023-05-19T02:05:51.318Z,11.55
2023-05-19T02:08:28.740Z,11.55
2023-05-19T02:11:05.509Z,11.57
2023-05-19T02:13:42.871Z,11.55
2023-05-19T02:16:16.743Z,11.51
2023-05-19T02:18:50.495Z,11.52
2023-05-19T02:21:20.951Z,11.52
2023-05-19T02:23:53.466Z,11.49
2023-05-19T02:26:41.669Z,11.47
2023-05-19T02:29:12.157Z,11.45
2023-05-19T02:31:42.651Z,11.41
2023-05-19T02:34:16.121Z,11.43
2023-05-19T02:36:54.169Z,11.42
2023-05-19T02:39:24.736Z,11.39
2023-05-19T02:41:55.204Z,11.37
2023-05-19T02:44:27.009Z,11.36
2023-05-19T02:46:57.538Z,11.35
2023-05-19T02:49:36.035Z,11.35
2023-05-19T02:52:07.263Z,11.32
2023-05-19T02:54:51.975Z,11.31
2023-05-19T02:57:22.574Z,11.28
2023-05-19T02:59:52.968Z,11.28
2023-05-19T03:02:26.398Z,11.28
2023-05-19T03:05:01.790Z,11.26
2023-05-19T03:07:34.055Z,11.26
2023-05-19T03:10:06.807Z,11.23
2023-05-19T03:12:43.016Z,11.21
2023-05-19T03:15:16.656Z,11.20
2023-05-19T03:17:47.427Z,11.16
2023-05-19T03:20:21.023Z,11.17
2023-05-19T03:22:51.696Z,11.15
2023-05-19T03:25:22.844Z,11.11
2023-05-19T03:27:53.359Z,11.10
2023-05-19T03:30:23.745Z,11.08
2023-05-19T03:33:07.735Z,11.02
2023-05-19T03:35:41.084Z,11.03
2023-05-19T03:38:12.228Z,10.99
2023-05-19T03:40:45.260Z,10.98
2023-05-19T03:43:16.508Z,10.97
2023-05-19T03:45:58.375Z,10.91
2023-05-19T03:48:47.549Z,10.89
2023-05-19T03:51:39.683Z,10.90
2023-05-19T03:54:22.756Z,10.85
2023-05-19T03:56:54.809Z,10.82
2023-05-19T03:59:26.332Z,10.78
2023-05-19T04:01:58.073Z,10.76
2023-05-19T04:04:30.831Z,10.75
2023-05-19T04:07:03.830Z,10.73
2023-05-19T04:09:35.646Z,10.73
2023-05-19T04:12:06.171Z,10.70
2023-05-19T04:14:36.645Z,10.67
2023-05-19T04:17:07.833Z,10.65
2023-05-19T04:19:38.300Z,10.65
2023-05-19T04:22:11.480Z,10.63
2023-05-19T04:24:41.838Z,10.64
2023-05-19T04:27:13.945Z,10.66
2023-05-19T04:29:44.306Z,10.61
2023-05-19T04:32:18.002Z,10.59
2023-05-19T04:34:48.834Z,10.58
2023-05-19T04:37:28.436Z,10.59
2023-05-19T04:39:59.123Z,10.56
2023-05-19T04:42:33.131Z,10.55
2023-05-19T04:45:05.560Z,10.55
2023-05-19T04:47:38.987Z,10.54
2023-05-19T04:50:11.558Z,10.58
2023-05-19T04:52:45.709Z,10.61
2023-05-19T04:55:17.609Z,10.57
2023-05-19T04:57:49.371Z,10.61
2023-05-19T05:00:21.455Z,10.62
2023-05-19T05:03:08.113Z,10.62
2023-05-19T05:05:38.759Z,10.60
2023-05-19T05:08:15.584Z,10.59
2023-05-19T05:10:46.982Z,10.59
2023-05-19T05:13:18.197Z,10.60
2023-05-19T05:15:49.867Z,10.61
2023-05-19T05:18:21.268Z,10.64
2023-05-19T05:20:52.765Z,10.61
2023-05-19T05:23:27.394Z,10.63
2023-05-19T05:25:58.992Z,10.63
2023-05-19T05:28:31.237Z,10.67
2023-05-19T05:31:01.802Z,10.70
2023-05-19T05:33:33.402Z,10.73
2023-05-19T05:36:04.750Z,10.76
2023-05-19T05:38:38.045Z,10.77
2023-05-19T05:41:08.986Z,10.76
2023-05-19T05:43:41.105Z,10.76
2023-05-19T05:46:12.024Z,10.75
2023-05-19T05:48:44.449Z,10.78
2023-05-19T05:51:16.268Z,10.81
2023-05-19T05:53:55.848Z,10.83
2023-05-19T05:56:37.215Z,10.85
2023-05-19T05:59:09.620Z,10.86
2023-05-19T06:01:41.767Z,10.90
2023-05-19T06:04:13.307Z,10.95
2023-05-19T06:06:43.749Z,10.97
2023-05-19T06:09:19.395Z,10.99
2023-05-19T06:11:50.011Z,11.10
2023-05-19T06:14:20.592Z,11.20
2023-05-19T06:17:11.414Z,11.31
2023-05-19T06:19:41.928Z,11.41
2023-05-19T06:22:12.767Z,11.47
2023-05-19T06:24:45.799Z,11.49
2023-05-19T06:27:17.639Z,11.46
2023-05-19T06:29:49.585Z,11.52
2023-05-19T06:32:20.282Z,11.59
2023-05-19T06:34:54.376Z,11.59
2023-05-19T06:37:25.845Z,11.64
2023-05-19T06:39:59.028Z,11.65
2023-05-19T06:42:30.328Z,11.68
2023-05-19T06:45:11.819Z,11.69
2023-05-19T06:47:44.698Z,11.75
2023-05-19T06:50:15.411Z,11.82
2023-05-19T06:52:47.232Z,11.90
2023-05-19T06:55:20.558Z,11.98
2023-05-19T06:57:53.434Z,12.05
2023-05-19T07:00:24.391Z,12.08
2023-05-19T07:02:56.754Z,12.15
2023-05-19T07:05:27.971Z,12.20
2023-05-19T07:08:01.868Z,12.24
2023-05-19T07:10:35.795Z,12.33
2023-05-19T07:13:10.693Z,12.41
2023-05-19T07:15:41.106Z,12.47
2023-05-19T07:18:11.770Z,12.53
2023-05-19T07:20:42.291Z,12.54
2023-05-19T07:23:13.140Z,12.58
2023-05-19T07:25:46.257Z,12.58
2023-05-19T07:28:16.760Z,12.61
2023-05-19T07:30:47.496Z,12.65
2023-05-19T07:33:20.340Z,12.67
2023-05-19T07:35:51.801Z,12.74
2023-05-19T07:38:22.452Z,12.75
2023-05-19T07:40:55.594Z,12.80
2023-05-19T07:43:26.546Z,12.83
2023-05-19T07:45:57.589Z,12.85
2023-05-19T07:48:30.020Z,12.94
2023-05-19T07:51:00.901Z,13.02
2023-05-19T07:53:32.975Z,13.03
2023-05-19T07:56:06.748Z,13.09
2023-05-19T07:58:39.264Z,13.18
2023-05-19T08:01:09.859Z,13.23
2023-05-19T08:03:40.367Z,13.24
2023-05-19T08:06:10.963Z,13.24
2023-05-19T08:08:42.342Z,13.25
2023-05-19T08:11:15.523Z,13.25
2023-05-19T08:13:47.767Z,13.26
2023-05-19T08:16:18.361Z,13.27
2023-05-19T08:18:48.990Z,13.26
2023-05-19T08:21:19.499Z,13.32
2023-05-19T08:23:50.065Z,13.27
2023-05-19T08:26:23.080Z,13.31
2023-05-19T08:28:53.655Z,13.37
2023-05-19T08:31:25.210Z,13.37
2023-05-19T08:33:58.486Z,13.33
2023-05-19T08:36:31.709Z,13.41
2023-05-19T08:39:02.158Z,13.51
2023-05-19T08:41:35.724Z,13.48
2023-05-19T08:44:06.622Z,13.49
2023-05-19T08:46:37.445Z,13.48
2023-05-19T08:49:15.901Z,13.50
2023-05-19T08:51:57.292Z,13.55
2023-05-19T08:54:35.395Z,13.57
2023-05-19T08:57:10.183Z,13.63
2023-05-19T08:59:42.456Z,13.69
2023-05-19T09:02:16.019Z,13.69
2023-05-19T09:04:48.209Z,13.68
2023-05-19T09:07:19.076Z,13.74
2023-05-19T09:09:49.529Z,13.73
2023-05-19T09:12:22.570Z,13.82
2023-05-19T09:14:53.099Z,13.82
2023-05-19T09:17:23.593Z,13.82
2023-05-19T09:19:54.743Z,13.88
2023-05-19T09:22:25.640Z,13.95
2023-05-19T09:24:56.878Z,13.98
2023-05-19T09:27:29.870Z,13.98
2023-05-19T09:30:11.054Z,14.02
2023-05-19T09:32:41.842Z,14.00
2023-05-19T09:35:14.412Z,14.03
2023-05-19T09:37:45.235Z,14.05
2023-05-19T09:40:18.831Z,14.10
2023-05-19T09:42:51.882Z,14.06
2023-05-19T09:45:23.686Z,14.08
2023-05-19T09:47:54.142Z,14.09
2023-05-19T09:50:30.325Z,14.15
2023-05-19T09:53:01.409Z,14.20
2023-05-19T09:55:33.521Z,14.26
2023-05-19T09:58:07.616Z,14.33
2023-05-19T10:00:38.330Z,14.36
2023-05-19T10:03:09.299Z,14.48
2023-05-19T10:05:41.711Z,14.48
2023-05-19T10:08:14.923Z,14.55
2023-05-19T10:10:45.843Z,14.58
2023-05-19T10:13:19.774Z,14.60
2023-05-19T10:15:59.017Z,14.57
2023-05-19T10:18:31.581Z,14.55
2023-05-19T10:21:03.646Z,14.56
2023-05-19T10:23:34.081Z,14.63
2023-05-19T10:26:06.867Z,14.65
2023-05-19T10:28:44.171Z,14.65
2023-05-19T10:31:22.360Z,14.73
2023-05-19T10:34:26.769Z,14.66
2023-05-19T10:37:09.498Z,14.64
2023-05-19T10:39:40.424Z,14.65
2023-05-19T10:42:20.210Z,14.65
2023-05-19T10:45:04.419Z,14.75
2023-05-19T10:47:35.424Z,14.74
2023-05-19T10:50:08.042Z,14.74
2023-05-19T10:52:41.405Z,14.81
2023-05-19T10:55:15.770Z,14.80
2023-05-19T10:57:57.193Z,14.83
2023-05-19T11:00:35.819Z,14.82
2023-05-19T11:05:54.732Z,14.80
2023-05-19T11:08:36.588Z,14.80
2023-05-19T11:11:17.652Z,14.84
2023-05-19T11:13:51.850Z,14.86
2023-05-19T11:16:31.101Z,14.86
2023-05-19T11:19:03.176Z,14.87
2023-05-19T11:21:47.029Z,14.92
2023-05-19T11:24:37.687Z,14.89
2023-05-19T11:27:27.989Z,14.91
2023-05-19T11:30:00.292Z,14.99
2023-05-19T11:32:39.335Z,14.98
2023-05-19T11:35:11.446Z,15.00
2023-05-19T11:37:42.878Z,14.99
2023-05-19T11:40:14.205Z,14.95
2023-05-19T11:42:45.497Z,14.95
2023-05-19T11:45:16.403Z,14.93
2023-05-19T11:48:01.382Z,14.98
2023-05-19T11:50:36.990Z,14.95
2023-05-19T11:53:07.731Z,15.04
2023-05-19T11:55:38.281Z,15.08
2023-05-19T11:58:08.726Z,15.10
2023-05-19T12:00:41.375Z,15.08
2023-05-19T12:03:15.076Z,15.09
2023-05-19T12:05:48.694Z,15.10
2023-05-19T12:08:21.786Z,15.10
2023-05-19T12:10:53.046Z,15.07
2023-05-19T12:13:25.159Z,15.15
2023-05-19T12:15:56.207Z,15.12
2023-05-19T12:18:33.639Z,15.19
2023-05-19T12:21:04.204Z,15.17
2023-05-19T12:23:35.481Z,15.19
2023-05-19T12:26:06.377Z,15.20
2023-05-19T12:28:37.522Z,15.21
2023-05-19T12:31:09.146Z,15.19
2023-05-19T12:33:42.498Z,15.19
2023-05-19T12:36:14.162Z,15.17
2023-05-19T12:38:44.795Z,15.21
2023-05-19T12:41:15.406Z,15.22
2023-05-19T12:43:45.976Z,15.23
2023-05-19T12:46:17.281Z,15.23
2023-05-19T12:48:52.080Z,15.20
2023-05-19T12:51:22.795Z,15.15
2023-05-19T12:53:53.762Z,15.11
2023-05-19T12:56:24.623Z,15.13
2023-05-19T12:58:57.937Z,15.14
2023-05-19T13:01:29.040Z,15.14
2023-05-19T13:04:04.643Z,15.14
2023-05-19T13:06:36.542Z,15.10
2023-05-19T13:09:07.512Z,15.12
2023-05-19T13:11:37.983Z,15.10
2023-05-19T13:14:08.548Z,15.09
2023-05-19T13:16:39.216Z,15.02
2023-05-19T13:19:24.289Z,15.01
2023-05-19T13:21:56.230Z,15.02
2023-05-19T13:24:26.771Z,15.03
2023-05-19T13:26:57.354Z,15.08
2023-05-19T13:29:28.425Z,15.09
2023-05-19T13:32:01.188Z,15.11
2023-05-19T13:34:34.589Z,15.11
2023-05-19T13:37:05.830Z,15.11
2023-05-19T13:39:37.164Z,15.13
2023-05-19T13:42:08.428Z,15.12
2023-05-19T13:44:39.012Z,15.12
2023-05-19T13:47:09.500Z,15.12
2023-05-19T13:49:43.081Z,15.14
2023-05-19T13:52:16.428Z,15.13
2023-05-19T13:54:46.931Z,15.13
2023-05-19T13:57:20.279Z,15.13
2023-05-19T14:00:01.947Z,15.14
2023-05-19T14:02:42.698Z,15.16
2023-05-19T14:05:15.929Z,15.14
2023-05-19T14:07:46.943Z,15.17
2023-05-19T14:10:17.818Z,15.19
2023-05-19T14:13:14.038Z,15.26
2023-05-19T14:15:41.595Z,15.27
2023-05-19T14:18:12.229Z,15.29
2023-05-19T14:20:45.406Z,15.38
2023-05-19T14:23:17.135Z,15.37
2023-05-19T14:25:47.653Z,15.41
2023-05-19T14:28:18.000Z,15.36
2023-05-19T14:30:48.854Z,15.39
2023-05-19T14:33:19.563Z,15.46
2023-05-19T14:35:52.795Z,15.45
2023-05-19T14:38:23.336Z,15.45
2023-05-19T14:40:54.243Z,15.47
2023-05-19T14:43:24.624Z,15.45
2023-05-19T14:45:55.098Z,15.40
2023-05-19T14:48:25.774Z,15.41
2023-05-19T14:50:59.005Z,15.43
2023-05-19T14:53:29.489Z,15.45
2023-05-19T14:55:59.902Z,15.45
2023-05-19T14:58:30.888Z,15.45
2023-05-19T15:01:01.930Z,15.47
2023-05-19T15:03:32.576Z,15.48
2023-05-19T15:06:05.711Z,15.45
2023-05-19T15:08:37.903Z,15.52
2023-05-19T15:11:08.486Z,15.49
2023-05-19T15:13:39.029Z,15.48
2023-05-19T15:18:44.839Z,15.47
2023-05-19T15:21:17.864Z,15.43
2023-05-19T15:23:48.351Z,15.48
2023-05-19T15:26:18.869Z,15.51
2023-05-19T15:28:49.435Z,15.51
2023-05-19T15:31:19.878Z,15.52
2023-05-19T15:33:50.461Z,15.51
2023-05-19T15:36:24.191Z,15.53
2023-05-19T15:38:54.558Z,15.53
2023-05-19T15:41:24.916Z,15.54
2023-05-19T15:43:56.025Z,15.60
2023-05-19T15:46:26.610Z,15.61
2023-05-19T15:48:57.172Z,15.63
2023-05-19T15:51:30.306Z,15.64
2023-05-19T15:54:00.846Z,15.63
2023-05-19T15:56:31.313Z,15.63
2023-05-19T15:59:01.758Z,15.69
2023-05-19T16:01:32.555Z,15.75
2023-05-19T16:04:04.100Z,15.71
2023-05-19T16:06:37.207Z,15.70
2023-05-19T16:09:07.686Z,15.68
2023-05-19T16:11:38.143Z,15.70
2023-05-19T16:14:08.707Z,15.68
2023-05-19T16:16:39.251Z,15.72
2023-05-19T16:19:10.502Z,15.78
2023-05-19T16:21:43.635Z,15.76
2023-05-19T16:24:14.200Z,15.79
2023-05-19T16:26:44.726Z,15.80
2023-05-19T16:29:15.202Z,15.87
2023-05-19T16:31:45.653Z,15.88
2023-05-19T16:34:16.315Z,15.86
2023-05-19T16:36:49.295Z,15.90
2023-05-19T16:39:19.690Z,15.89
2023-05-19T16:41:50.168Z,15.93
2023-05-19T16:44:20.601Z,15.96
2023-05-19T16:46:50.968Z,15.99
2023-05-19T16:49:21.472Z,15.99
2023-05-19T16:51:55.933Z,16.04
2023-05-19T16:54:26.392Z,16.13
2023-05-19T16:56:56.786Z,16.20
2023-05-19T16:59:27.323Z,16.35
2023-05-19T17:01:57.821Z,16.54
2023-05-19T17:04:30.675Z,16.67
2023-05-19T17:07:03.965Z,16.77
2023-05-19T17:09:34.580Z,16.89
2023-05-19T17:12:05.027Z,17.02
2023-05-19T17:14:35.718Z,17.07
2023-05-19T17:17:06.787Z,17.19
2023-05-19T17:19:37.516Z,17.20
2023-05-19T17:22:10.660Z,17.19
2023-05-19T17:24:41.394Z,17.18
2023-05-19T17:27:11.853Z,17.14
2023-05-19T17:29:42.477Z,17.11
2023-05-19T17:32:13.001Z,17.14
2023-05-19T17:34:43.542Z,17.15
2023-05-19T17:37:19.284Z,17.17
2023-05-19T17:39:49.709Z,17.25
2023-05-19T17:42:20.272Z,17.35
2023-05-19T17:44:50.733Z,17.42
2023-05-19T17:47:21.231Z,17.52
2023-05-19T17:49:53.130Z,17.56
2023-05-19T17:52:27.260Z,17.55
2023-05-19T17:54:58.870Z,17.58
2023-05-19T17:57:34.188Z,17.62
2023-05-19T18:00:05.902Z,17.57
2023-05-19T18:02:37.587Z,17.57
2023-05-19T18:05:10.099Z,17.58
2023-05-19T18:07:46.303Z,17.53
2023-05-19T18:10:19.404Z,17.47
2023-05-19T18:12:49.942Z,17.41
2023-05-19T18:15:21.218Z,17.36
2023-05-19T18:17:51.812Z,17.33
2023-05-19T18:20:22.567Z,17.26
2023-05-19T18:22:55.867Z,17.20
2023-05-19T18:25:26.375Z,17.16
2023-05-19T18:27:57.385Z,17.11
2023-05-19T18:30:27.782Z,17.08
2023-05-19T18:33:02.206Z,17.03
2023-05-19T18:35:32.809Z,16.98
2023-05-19T18:38:05.914Z,16.93
2023-05-19T18:40:36.568Z,16.86
2023-05-19T18:43:07.370Z,16.81
2023-05-19T18:45:38.582Z,16.75
2023-05-19T18:48:10.181Z,16.71
2023-05-19T18:50:41.195Z,16.64
2023-05-19T18:53:14.412Z,16.60
2023-05-19T18:55:45.023Z,16.53
2023-05-19T18:58:15.626Z,16.51
2023-05-19T19:00:46.171Z,16.45
2023-05-19T19:03:16.654Z,16.38
2023-05-19T19:05:48.153Z,16.29
2023-05-19T19:08:21.189Z,16.21
2023-05-19T19:10:52.236Z,16.19
2023-05-19T19:13:22.803Z,16.13
2023-05-19T19:15:53.339Z,16.11
2023-05-19T19:18:24.060Z,16.09
2023-05-19T19:20:55.039Z,16.05
2023-05-19T19:23:28.115Z,16.06
2023-05-19T19:25:58.859Z,16.01
2023-05-19T19:28:29.462Z,15.99
2023-05-19T19:30:59.980Z,15.95
2023-05-19T19:33:30.663Z,15.92
2023-05-19T19:36:01.528Z,15.88
2023-05-19T19:38:34.656Z,15.81
2023-05-19T19:41:05.284Z,15.79
2023-05-19T19:43:35.844Z,15.75
2023-05-19T19:46:09.321Z,15.75
2023-05-19T19:48:39.805Z,15.69
2023-05-19T19:51:10.233Z,15.66
2023-05-19T19:53:43.363Z,15.63
2023-05-19T19:56:13.828Z,15.60
2023-05-19T19:58:44.318Z,15.56
2023-05-19T20:01:16.172Z,15.54
2023-05-19T20:03:46.699Z,15.50
2023-05-19T20:06:17.229Z,15.48
2023-05-19T20:08:50.366Z,15.44
2023-05-19T20:11:23.123Z,15.40
2023-05-19T20:13:53.673Z,15.38
2023-05-19T20:16:24.339Z,15.35
2023-05-19T20:18:54.880Z,15.34
2023-05-19T20:21:25.461Z,15.31
2023-05-19T20:23:58.722Z,15.28
2023-05-19T20:26:29.445Z,15.27
2023-05-19T20:29:00.437Z,15.23
2023-05-19T20:31:30.837Z,15.20
2023-05-19T20:34:01.902Z,15.20
2023-05-19T20:36:32.576Z,15.19
2023-05-19T20:39:07.292Z,15.13
2023-05-19T20:41:37.478Z,15.11
2023-05-19T20:44:10.435Z,15.09
2023-05-19T20:46:40.903Z,15.09
2023-05-19T20:49:11.237Z,15.07
2023-05-19T20:51:41.732Z,15.02
2023-05-19T20:54:14.738Z,14.96
2023-05-19T20:56:45.261Z,14.93
2023-05-19T20:59:15.928Z,14.88
2023-05-19T21:01:48.399Z,14.89
2023-05-19T21:04:19.091Z,14.87
2023-05-19T21:06:49.619Z,14.82
2023-05-19T21:09:22.858Z,14.81
2023-05-19T21:11:53.818Z,14.82
2023-05-19T21:14:25.518Z,14.81
2023-05-19T21:16:56.802Z,14.79
2023-05-19T21:19:27.589Z,14.70
2023-05-19T21:21:58.182Z,14.67
2023-05-19T21:24:31.358Z,14.69
2023-05-19T21:27:01.796Z,14.64
2023-05-19T21:29:32.164Z,14.63
2023-05-19T21:32:02.648Z,14.61
2023-05-19T21:34:33.043Z,14.59
2023-05-19T21:37:03.610Z,14.59
2023-05-19T21:39:36.704Z,14.56
2023-05-19T21:42:08.223Z,14.53
2023-05-19T21:44:39.039Z,14.54
2023-05-19T21:47:09.653Z,14.51
2023-05-19T21:49:41.050Z,14.46
2023-05-19T21:52:11.484Z,14.41
2023-05-19T21:54:44.554Z,14.42
2023-05-19T21:57:15.097Z,14.38
2023-05-19T21:59:45.672Z,14.38
2023-05-19T22:02:16.193Z,14.33
2023-05-19T22:04:46.713Z,14.29
2023-05-19T22:07:17.091Z,14.25
2023-05-19T22:09:50.185Z,14.23
2023-05-19T22:12:20.590Z,14.19
2023-05-19T22:14:50.977Z,14.15
2023-05-19T22:17:21.804Z,14.11
2023-05-19T22:19:52.288Z,14.06
2023-05-19T22:22:22.722Z,14.04
2023-05-19T22:24:55.751Z,14.02
2023-05-19T22:27:26.279Z,13.99
2023-05-19T22:29:56.700Z,13.90
2023-05-19T22:32:27.108Z,13.88
2023-05-19T22:34:57.645Z,13.82
2023-05-19T22:37:29.119Z,13.76
2023-05-19T22:40:02.768Z,13.75
2023-05-19T22:42:33.117Z,13.67
2023-05-19T22:45:03.575Z,13.61
2023-05-19T22:47:34.066Z,13.54
2023-05-19T22:50:04.469Z,13.56
2023-05-19T22:52:35.017Z,13.50
2023-05-19T22:55:09.296Z,13.49
2023-05-19T22:57:39.824Z,13.48
2023-05-19T23:00:14.236Z,13.44
2023-05-19T23:02:45.151Z,13.41
2023-05-19T23:05:15.548Z,13.41
2023-05-19T23:07:46.158Z,13.37
2023-05-19T23:10:19.617Z,13.34
2023-05-19T23:12:50.394Z,13.32
2023-05-19T23:15:21.125Z,13.27
2023-05-19T23:17:51.739Z,13.21
2023-05-19T23:20:22.209Z,13.18
2023-05-19T23:22:52.666Z,13.14
2023-05-19T23:25:25.666Z,13.08
2023-05-19T23:27:56.180Z,13.04
2023-05-19T23:30:26.631Z,13.04
2023-05-19T23:32:57.055Z,12.99
2023-05-19T23:35:27.630Z,12.92
2023-05-19T23:37:58.108Z,12.91
2023-05-19T23:40:31.775Z,12.90
2023-05-19T23:43:02.214Z,12.90
2023-05-19T23:45:32.825Z,12.89
2023-05-19T23:48:03.573Z,12.88
2023-05-19T23:50:34.131Z,12.85
2023-05-19T23:53:04.631Z,12.79
2023-05-19T23:55:37.615Z,12.80
2023-05-19T23:58:08.177Z,12.77
